createdAt,value
2019-04-21T00:01:42.009Z,4.20
2019-04-21T00:04:21.374Z,3.87
2019-04-21T00:06:58.779Z,4.33
2019-04-21T00:09:36.027Z,4.20
2019-04-21T00:11:55.354Z,4.27
2019-04-21T00:14:21.987Z,3.93
2019-04-21T00:16:50.407Z,4.00
2019-04-21T00:19:26.384Z,4.23
2019-04-21T00:22:01.558Z,3.97
2019-04-21T00:24:34.984Z,4.27
2019-04-21T00:27:13.910Z,3.73
2019-04-21T00:29:45.446Z,3.90
2019-04-21T00:32:06.925Z,4.17
2019-04-21T00:34:23.786Z,3.80
2019-04-21T00:37:03.134Z,3.87
2019-04-21T00:39:58.770Z,4.03
2019-04-21T00:42:14.590Z,4.00
2019-04-21T00:44:35.531Z,4.27
2019-04-21T00:47:18.026Z,4.17
2019-04-21T00:49:43.172Z,4.83
2019-04-21T00:52:46.253Z,4.60
2019-04-21T00:55:14.182Z,5.07
2019-04-21T00:57:42.728Z,5.20
2019-04-21T01:00:09.686Z,4.77
2019-04-21T01:02:39.698Z,4.97
2019-04-21T01:05:09.100Z,4.97
2019-04-21T01:07:31.400Z,5.27
2019-04-21T01:09:58.717Z,4.70
2019-04-21T01:12:38.007Z,5.60
2019-04-21T01:15:11.089Z,5.87
2019-04-21T01:17:38.783Z,6.27
2019-04-21T01:19:59.955Z,5.43
2019-04-21T01:22:14.012Z,5.47
2019-04-21T01:24:46.654Z,5.47
2019-04-21T01:27:25.059Z,6.03
2019-04-21T01:30:07.004Z,5.37
2019-04-21T01:32:37.573Z,6.17
2019-04-21T01:35:02.641Z,5.23
2019-04-21T01:37:40.864Z,6.10
2019-04-21T01:40:09.302Z,5.80
2019-04-21T01:42:34.391Z,5.90
2019-04-21T01:45:05.423Z,5.50
2019-04-21T01:47:31.398Z,5.50
2019-04-21T01:49:56.526Z,5.60
2019-04-21T01:52:44.321Z,5.30
2019-04-21T01:55:36.900Z,6.00
2019-04-21T01:58:02.078Z,5.53
2019-04-21T02:01:02.074Z,5.40
2019-04-21T02:06:14.918Z,5.70
2019-04-21T02:08:31.370Z,6.07
2019-04-21T02:11:15.657Z,6.00
2019-04-21T02:13:44.752Z,6.20
2019-04-21T02:16:08.847Z,5.40
2019-04-21T02:18:33.719Z,5.93
2019-04-21T02:20:52.853Z,5.60
2019-04-21T02:26:13.591Z,6.47
2019-04-21T02:28:50.496Z,6.73
2019-04-21T02:31:22.650Z,6.07
2019-04-21T02:33:56.987Z,6.67
2019-04-21T02:41:22.792Z,6.60
2019-04-21T02:43:58.355Z,5.87
2019-04-21T02:46:23.885Z,6.37
2019-04-21T02:48:56.451Z,6.13
2019-04-21T02:51:27.960Z,6.87
2019-04-21T02:54:24.990Z,6.53
2019-04-21T02:56:24.721Z,6.33
2019-04-21T02:58:59.861Z,6.23
2019-04-21T03:04:42.597Z,6.57
2019-04-21T03:12:17.709Z,6.67
2019-04-21T03:15:06.215Z,6.23
2019-04-21T03:17:22.016Z,6.87
2019-04-21T03:19:51.967Z,6.53
2019-04-21T03:22:20.887Z,6.17
2019-04-21T03:27:35.558Z,6.47
2019-04-21T03:29:55.514Z,6.10
2019-04-21T03:32:58.882Z,5.97
2019-04-21T03:35:26.091Z,6.40
2019-04-21T03:37:23.122Z,6.67
2019-04-21T03:39:54.626Z,6.00
2019-04-21T03:42:28.887Z,6.20
2019-04-21T03:45:00.119Z,5.87
2019-04-21T03:47:24.869Z,6.23
2019-04-21T03:49:54.298Z,6.47
2019-04-21T03:52:30.256Z,6.07
2019-04-21T04:00:59.993Z,6.07
2019-04-21T04:06:40.578Z,6.77
2019-04-21T04:11:47.382Z,6.33
2019-04-21T04:16:47.441Z,6.70
2019-04-21T04:19:18.693Z,6.40
2019-04-21T04:21:48.906Z,6.80
2019-04-21T04:24:18.044Z,6.10
2019-04-21T04:29:20.478Z,6.30
2019-04-21T04:31:43.238Z,6.27
2019-04-21T04:34:27.501Z,6.07
2019-04-21T04:39:45.987Z,6.10
2019-04-21T04:49:48.149Z,5.83
2019-04-21T04:57:14.120Z,6.33
2019-04-21T04:59:42.512Z,5.30
2019-04-21T05:02:26.549Z,5.43
2019-04-21T05:07:17.002Z,5.73
2019-04-21T05:12:27.092Z,5.70
2019-04-21T05:14:47.001Z,5.60
2019-04-21T05:17:15.232Z,5.37
2019-04-21T05:22:19.995Z,6.40
2019-04-21T05:24:29.991Z,5.30
2019-04-21T05:26:58.187Z,5.20
2019-04-21T05:29:53.590Z,5.60
2019-04-21T05:32:26.251Z,5.37
2019-04-21T05:35:01.649Z,5.07
2019-04-21T05:37:37.152Z,5.33
2019-04-21T05:40:12.253Z,5.00
2019-04-21T05:42:43.879Z,5.67
2019-04-21T05:45:23.172Z,5.37
2019-04-21T05:48:07.636Z,5.60
2019-04-21T05:50:23.764Z,5.30
2019-04-21T05:52:50.341Z,5.20
2019-04-21T05:55:34.693Z,4.50
2019-04-21T05:57:59.931Z,5.17
2019-04-21T06:00:49.420Z,4.97
2019-04-21T06:03:03.810Z,5.07
2019-04-21T06:05:37.896Z,9.60
2019-04-21T06:08:02.794Z,38.07
2019-04-21T06:10:38.353Z,29.13
2019-04-21T06:13:07.124Z,11.63
2019-04-21T06:15:39.610Z,6.97
2019-04-21T06:18:05.960Z,5.13
2019-04-21T06:20:34.191Z,4.60
2019-04-21T06:23:07.981Z,4.17
2019-04-21T06:28:04.549Z,4.07
2019-04-21T06:30:40.880Z,4.40
2019-04-21T06:33:08.149Z,4.07
2019-04-21T06:36:21.566Z,4.40
2019-04-21T06:38:54.082Z,4.20
2019-04-21T06:41:13.450Z,4.47
2019-04-21T06:43:48.165Z,4.03
2019-04-21T06:46:23.153Z,4.07
2019-04-21T06:48:49.541Z,4.43
2019-04-21T06:51:19.742Z,4.37
2019-04-21T06:53:52.397Z,4.30
2019-04-21T06:56:15.227Z,4.20
2019-04-21T06:58:42.873Z,3.67
2019-04-21T07:01:17.193Z,4.30
2019-04-21T07:03:49.082Z,4.50
2019-04-21T07:06:20.077Z,4.20
2019-04-21T07:08:56.630Z,4.30
2019-04-21T07:11:15.059Z,4.10
2019-04-21T07:13:44.427Z,3.90
2019-04-21T07:16:18.764Z,4.20
2019-04-21T07:18:51.346Z,4.37
2019-04-21T07:21:21.848Z,4.20
2019-04-21T07:23:55.579Z,4.30
2019-04-21T07:26:23.269Z,4.00
2019-04-21T07:28:56.815Z,4.23
2019-04-21T07:31:17.772Z,4.07
2019-04-21T07:36:35.372Z,3.93
2019-04-21T07:38:50.408Z,4.33
2019-04-21T07:41:13.626Z,4.43
2019-04-21T07:43:47.274Z,4.27
2019-04-21T07:46:17.273Z,3.77
2019-04-21T07:48:49.727Z,3.70
2019-04-21T07:51:47.650Z,3.77
2019-04-21T07:54:20.179Z,3.37
2019-04-21T07:56:28.368Z,3.43
2019-04-21T07:59:18.855Z,3.60
2019-04-21T08:01:43.853Z,3.23
2019-04-21T08:04:39.332Z,3.15
2019-04-21T08:06:49.436Z,3.70
2019-04-21T08:09:12.277Z,3.65
2019-04-21T08:11:44.297Z,3.65
2019-04-21T08:14:19.184Z,3.50
2019-04-21T08:16:55.015Z,3.30
2019-04-21T08:19:22.157Z,3.12
2019-04-21T08:21:49.611Z,3.52
2019-04-21T08:24:18.147Z,3.58
2019-04-21T08:26:51.033Z,2.95
2019-04-21T08:29:25.727Z,3.45
2019-04-21T08:32:00.796Z,3.30
2019-04-21T08:34:21.607Z,3.52
2019-04-21T08:37:08.902Z,2.75
2019-04-21T08:39:24.023Z,3.22
2019-04-21T08:41:51.182Z,3.95
2019-04-21T08:44:26.239Z,2.67
2019-04-21T08:46:55.075Z,3.40
2019-04-21T08:49:22.300Z,3.00
2019-04-21T08:51:53.887Z,3.60
2019-04-21T08:54:26.481Z,2.80
2019-04-21T08:57:06.141Z,2.98
2019-04-21T08:59:55.269Z,3.25
2019-04-21T09:02:32.424Z,3.52
2019-04-21T09:04:52.766Z,3.17
2019-04-21T09:09:57.504Z,3.12
2019-04-21T09:12:29.396Z,2.92
2019-04-21T09:14:55.326Z,3.42
2019-04-21T09:17:20.611Z,2.95
2019-04-21T09:20:08.700Z,3.70
2019-04-21T09:22:29.881Z,3.05
2019-04-21T09:25:00.272Z,3.05
2019-04-21T09:27:25.725Z,3.15
2019-04-21T09:29:46.784Z,3.33
2019-04-21T09:32:18.351Z,2.77
2019-04-21T09:34:45.537Z,3.20
2019-04-21T09:37:24.409Z,3.47
2019-04-21T09:39:48.100Z,2.62
2019-04-21T09:42:13.585Z,3.20
2019-04-21T09:44:45.515Z,3.30
2019-04-21T09:47:15.906Z,3.55
2019-04-21T09:49:45.111Z,3.00
2019-04-21T09:52:20.888Z,3.20
2019-04-21T09:54:54.810Z,2.90
2019-04-21T09:57:26.504Z,3.30
2019-04-21T09:59:55.769Z,3.20
2019-04-21T10:02:21.295Z,3.22
2019-04-21T10:04:46.222Z,3.90
2019-04-21T10:07:25.792Z,3.30
2019-04-21T10:09:45.624Z,3.30
2019-04-21T10:12:14.355Z,3.42
2019-04-21T10:14:43.094Z,3.12
2019-04-21T10:17:30.912Z,3.98
2019-04-21T10:20:00.629Z,3.30
2019-04-21T10:22:30.964Z,3.72
2019-04-21T10:25:00.603Z,3.40
2019-04-21T10:27:29.602Z,4.12
2019-04-21T10:29:58.232Z,16.25
2019-04-21T10:32:28.110Z,3.98
2019-04-21T10:34:57.207Z,6.83
2019-04-21T10:37:40.122Z,29.25
2019-04-21T10:39:56.130Z,10.98
2019-04-21T10:42:24.698Z,4.22
2019-04-21T10:44:53.302Z,9.60
2019-04-21T10:47:22.788Z,5.65
2019-04-21T10:49:52.740Z,3.98
2019-04-21T10:52:28.998Z,4.22
2019-04-21T10:55:20.731Z,3.85
2019-04-21T10:57:30.557Z,3.20
2019-04-21T11:00:00.969Z,3.17
2019-04-21T11:02:39.163Z,3.20
2019-04-21T11:05:08.982Z,3.37
2019-04-21T11:08:01.147Z,3.70
2019-04-21T11:10:18.274Z,3.55
2019-04-21T11:12:47.933Z,3.55
2019-04-21T11:15:17.130Z,3.50
2019-04-21T11:17:47.297Z,3.75
2019-04-21T11:20:17.259Z,3.42
2019-04-21T11:22:47.159Z,3.20
2019-04-21T11:25:15.965Z,3.20
2019-04-21T11:27:44.923Z,3.45
2019-04-21T11:30:13.759Z,3.10
2019-04-21T11:32:44.917Z,3.60
2019-04-21T11:35:13.050Z,3.35
2019-04-21T11:37:42.194Z,3.30
2019-04-21T11:40:14.913Z,3.08
2019-04-21T11:42:41.969Z,2.98
2019-04-21T11:45:14.946Z,3.62
2019-04-21T11:47:58.441Z,3.42
2019-04-21T11:50:27.238Z,3.12
2019-04-21T11:52:56.991Z,3.10
2019-04-21T11:55:29.498Z,2.92
2019-04-21T11:57:56.525Z,3.25
2019-04-21T12:00:25.286Z,3.00
2019-04-21T12:02:55.357Z,2.92
2019-04-21T12:05:25.447Z,3.20
2019-04-21T12:07:58.229Z,3.12
2019-04-21T12:10:24.446Z,3.05
2019-04-21T12:12:53.156Z,3.12
2019-04-21T12:15:22.929Z,3.42
2019-04-21T12:17:52.152Z,3.20
2019-04-21T12:20:20.952Z,3.30
2019-04-21T12:22:49.634Z,3.35
2019-04-21T12:25:18.966Z,3.17
2019-04-21T12:27:47.826Z,3.40
2019-04-21T12:30:17.708Z,3.98
2019-04-21T12:32:51.924Z,3.17
2019-04-21T12:35:21.750Z,3.12
2019-04-21T12:37:51.060Z,3.40
2019-04-21T12:40:20.860Z,3.30
2019-04-21T12:42:50.473Z,3.30
2019-04-21T12:45:19.292Z,3.90
2019-04-21T12:47:50.272Z,2.98
2019-04-21T12:50:18.243Z,3.10
2019-04-21T12:52:47.429Z,3.10
2019-04-21T12:55:17.547Z,3.02
2019-04-21T12:57:47.562Z,3.27
2019-04-21T13:00:20.706Z,3.00
2019-04-21T13:02:49.820Z,3.47
2019-04-21T13:05:19.853Z,2.95
2019-04-21T13:07:49.409Z,3.50
2019-04-21T13:10:18.307Z,3.05
2019-04-21T13:12:47.996Z,2.70
2019-04-21T13:15:17.875Z,3.00
2019-04-21T13:17:47.375Z,2.90
2019-04-21T13:20:17.094Z,2.70
2019-04-21T13:22:46.072Z,3.15
2019-04-21T13:25:16.038Z,2.98
2019-04-21T13:27:45.141Z,3.55
2019-04-21T13:30:14.673Z,3.27
2019-04-21T13:32:43.306Z,8.13
2019-04-21T13:35:12.932Z,2.80
2019-04-21T13:37:41.670Z,3.10
2019-04-21T13:40:46.126Z,3.12
2019-04-21T13:43:02.113Z,2.90
2019-04-21T13:45:28.272Z,3.17
2019-04-21T13:47:56.899Z,3.33
2019-04-21T13:50:25.644Z,2.60
2019-04-21T13:52:54.559Z,2.52
2019-04-21T13:55:23.552Z,2.20
2019-04-21T13:57:52.558Z,5.05
2019-04-21T14:00:21.514Z,3.25
2019-04-21T14:02:52.427Z,3.50
2019-04-21T14:05:22.284Z,3.75
2019-04-21T14:07:52.270Z,7.30
2019-04-21T14:10:21.872Z,7.87
2019-04-21T14:12:51.274Z,5.03
2019-04-21T14:15:22.190Z,4.60
2019-04-21T14:17:50.985Z,4.90
2019-04-21T14:20:19.631Z,10.32
2019-04-21T14:22:48.198Z,5.78
2019-04-21T14:25:17.474Z,5.22
2019-04-21T14:27:49.029Z,6.50
2019-04-21T14:30:18.673Z,7.22
2019-04-21T14:32:47.641Z,4.75
2019-04-21T14:35:16.680Z,12.18
2019-04-21T14:37:46.604Z,5.62
2019-04-21T14:40:20.677Z,4.42
2019-04-21T14:42:45.677Z,3.30
2019-04-21T14:45:26.919Z,4.00
2019-04-21T14:48:03.178Z,4.85
2019-04-21T14:51:00.048Z,4.70
2019-04-21T14:53:36.049Z,3.85
2019-04-21T14:56:04.811Z,4.67
2019-04-21T14:58:33.384Z,4.05
2019-04-21T15:01:04.222Z,3.30
2019-04-21T15:03:34.210Z,2.85
2019-04-21T15:06:03.309Z,3.60
2019-04-21T15:08:33.418Z,2.90
2019-04-21T15:11:03.210Z,2.50
2019-04-21T15:13:32.309Z,3.12
2019-04-21T15:16:02.645Z,3.05
2019-04-21T15:18:32.638Z,3.00
2019-04-21T15:21:01.526Z,2.72
2019-04-21T15:23:31.988Z,2.90
2019-04-21T15:26:01.935Z,3.30
2019-04-21T15:28:33.611Z,2.92
2019-04-21T15:31:02.740Z,3.25
2019-04-21T15:33:31.574Z,2.37
2019-04-21T15:36:00.810Z,2.92
2019-04-21T15:38:29.857Z,2.75
2019-04-21T15:41:02.638Z,3.05
2019-04-21T15:43:28.849Z,2.62
2019-04-21T15:45:57.439Z,2.65
2019-04-21T15:48:26.704Z,2.85
2019-04-21T15:50:56.734Z,3.17
2019-04-21T15:53:25.810Z,2.80
2019-04-21T15:56:02.532Z,3.02
2019-04-21T15:58:54.512Z,2.72
2019-04-21T16:01:28.706Z,2.92
2019-04-21T16:03:59.159Z,2.40
2019-04-21T16:06:27.782Z,2.58
2019-04-21T16:08:58.977Z,2.80
2019-04-21T16:11:28.094Z,2.25
2019-04-21T16:13:57.473Z,2.58
2019-04-21T16:16:28.782Z,3.17
2019-04-21T16:18:58.309Z,2.62
2019-04-21T16:21:26.993Z,2.80
2019-04-21T16:23:56.339Z,2.90
2019-04-21T16:26:26.654Z,2.70
2019-04-21T16:28:55.674Z,2.70
2019-04-21T16:31:24.789Z,2.75
2019-04-21T16:33:54.633Z,2.52
2019-04-21T16:36:23.578Z,2.40
2019-04-21T16:38:53.477Z,2.80
2019-04-21T16:41:22.406Z,2.60
2019-04-21T16:43:51.433Z,2.60
2019-04-21T16:46:21.130Z,2.58
2019-04-21T16:48:49.778Z,2.77
2019-04-21T16:51:18.466Z,2.65
2019-04-21T16:53:55.606Z,4.30
2019-04-21T16:56:50.102Z,2.67
2019-04-21T16:59:32.699Z,3.00
2019-04-21T17:02:02.691Z,2.75
2019-04-21T17:04:31.451Z,2.58
2019-04-21T17:07:00.959Z,2.67
2019-04-21T17:09:30.589Z,2.87
2019-04-21T17:12:03.377Z,2.50
2019-04-21T17:14:48.123Z,2.80
2019-04-21T17:17:26.762Z,2.67
2019-04-21T17:19:36.025Z,2.30
2019-04-21T17:22:01.773Z,2.50
2019-04-21T17:24:30.653Z,2.80
2019-04-21T17:26:59.551Z,4.33
2019-04-21T17:29:28.464Z,4.40
2019-04-21T17:31:57.426Z,4.07
2019-04-21T17:34:28.852Z,3.87
2019-04-21T17:36:57.210Z,3.90
2019-04-21T17:39:27.002Z,3.97
2019-04-21T17:42:05.675Z,3.30
2019-04-21T17:44:25.908Z,3.23
2019-04-21T17:47:01.250Z,3.77
2019-04-21T17:49:25.249Z,3.90
2019-04-21T17:52:13.602Z,3.83
2019-04-21T17:54:50.493Z,3.83
2019-04-21T17:57:36.678Z,3.63
2019-04-21T18:00:08.196Z,3.23
2019-04-21T18:05:08.641Z,3.90
2019-04-21T18:07:35.356Z,3.73
2019-04-21T18:10:15.866Z,4.70
2019-04-21T18:12:34.877Z,17.90
2019-04-21T18:14:56.508Z,20.27
2019-04-21T18:17:18.500Z,10.07
2019-04-21T18:19:50.779Z,8.70
2019-04-21T18:22:40.935Z,8.20
2019-04-21T18:25:14.564Z,6.87
2019-04-21T18:27:38.813Z,4.93
2019-04-21T18:30:38.593Z,4.53
2019-04-21T18:33:17.424Z,3.90
2019-04-21T18:35:58.102Z,3.80
2019-04-21T18:39:00.001Z,3.80
2019-04-21T18:41:10.614Z,2.77
2019-04-21T18:44:06.723Z,3.87
2019-04-21T18:46:39.747Z,3.13
2019-04-21T18:49:13.231Z,2.80
2019-04-21T18:52:03.599Z,3.20
2019-04-21T18:54:45.828Z,3.10
2019-04-21T18:57:08.162Z,2.70
2019-04-21T18:59:34.546Z,2.97
2019-04-21T19:02:06.339Z,2.87
2019-04-21T19:04:33.848Z,3.10
2019-04-21T19:07:12.990Z,2.53
2019-04-21T19:10:19.210Z,3.50
2019-04-21T19:12:20.838Z,3.43
2019-04-21T19:14:47.900Z,3.17
2019-04-21T19:17:56.759Z,3.33
2019-04-21T19:20:04.680Z,3.20
2019-04-21T19:22:15.263Z,3.00
2019-04-21T19:24:54.957Z,3.70
2019-04-21T19:27:24.527Z,2.83
2019-04-21T19:30:03.937Z,3.53
2019-04-21T19:32:25.651Z,3.50
2019-04-21T19:34:40.387Z,3.40
2019-04-21T19:37:12.685Z,3.70
2019-04-21T19:39:51.218Z,3.20
2019-04-21T19:42:18.590Z,3.10
2019-04-21T19:44:52.159Z,3.07
2019-04-21T19:47:28.089Z,3.67
2019-04-21T19:49:55.114Z,3.13
2019-04-21T19:52:20.375Z,3.90
2019-04-21T19:54:41.724Z,3.47
2019-04-21T19:57:09.040Z,3.63
2019-04-21T19:59:44.717Z,3.97
2019-04-21T20:02:08.988Z,4.33
2019-04-21T20:04:44.946Z,4.50
2019-04-21T20:07:23.344Z,4.60
2019-04-21T20:09:56.633Z,4.50
2019-04-21T20:12:33.215Z,5.17
2019-04-21T20:15:10.804Z,4.67
2019-04-21T20:17:31.115Z,4.60
2019-04-21T20:19:40.338Z,4.67
2019-04-21T20:22:11.303Z,4.10
2019-04-21T20:24:49.985Z,5.00
2019-04-21T20:27:17.774Z,4.70
2019-04-21T20:29:56.151Z,4.90
2019-04-21T20:35:01.204Z,4.40
2019-04-21T20:37:34.458Z,4.27
2019-04-21T20:39:50.491Z,4.03
2019-04-21T20:42:24.293Z,4.10
2019-04-21T20:45:16.077Z,4.03
2019-04-21T20:47:22.858Z,3.60
2019-04-21T20:49:59.772Z,3.53
2019-04-21T20:52:35.751Z,3.63
2019-04-21T20:55:03.232Z,3.30
2019-04-21T20:57:30.025Z,3.60
2019-04-21T21:00:07.094Z,3.80
2019-04-21T21:02:39.029Z,4.07
2019-04-21T21:04:56.904Z,4.27
2019-04-21T21:10:08.761Z,4.30
2019-04-21T21:12:43.093Z,4.60
2019-04-21T21:15:02.582Z,4.37
2019-04-21T21:20:14.538Z,4.83
2019-04-21T21:22:39.329Z,5.17
2019-04-21T21:25:10.264Z,5.53
2019-04-21T21:27:35.196Z,5.23
2019-04-21T21:30:05.703Z,4.63
2019-04-21T21:32:38.490Z,4.60
2019-04-21T21:35:08.072Z,4.67
2019-04-21T21:37:41.002Z,5.03
2019-04-21T21:40:12.687Z,5.37
2019-04-21T21:42:28.260Z,4.80
2019-04-21T21:45:00.453Z,4.53
2019-04-21T21:47:39.353Z,4.80
2019-04-21T21:50:04.749Z,4.50
2019-04-21T21:52:42.375Z,4.57
2019-04-21T21:54:53.952Z,4.53
2019-04-21T21:57:22.906Z,4.70
2019-04-21T21:59:58.868Z,5.00
